NCAR-RAP Real-Time Weather Data

Output produced by METARs form (17 January 2018  22:29 UTC)
found at http://weather.rap.ucar.edu/surface/
 
Conditions at: KVVG observed 17 January 2018  22:10 UTC
Temperature: 12.0°C (54°F)
Dewpoint: 5.0°C (41°F) [RH = 62%]
Pressure (altimeter): 30.15 inches Hg (1021.1 mb)
Winds: missing
Visibility: 10 or more miles (16+ km)
Ceiling: unknown
Clouds: missing
Present Weather: automated observation with no human augmentation;
there may or may not be significant weather present at this time
KVVG 172210Z AUTO 10SM 12/05 A3015 RMK A01

Conditions at: KVVG observed 17 January 2018  21:50 UTC
Temperature: 12.0°C (54°F)
Dewpoint: 6.0°C (43°F) [RH = 67%]
Pressure (altimeter): 30.15 inches Hg (1021.1 mb)
Winds: missing
Visibility: 10 or more miles (16+ km)
Ceiling: unknown
Clouds: missing
Present Weather: automated observation with no human augmentation;
there may or may not be significant weather present at this time
KVVG 172150Z AUTO 10SM 12/06 A3015 RMK A01

Conditions at: KVVG observed 17 January 2018  21:30 UTC
Temperature: 12.0°C (54°F)
Dewpoint: 5.0°C (41°F) [RH = 62%]
Pressure (altimeter): 30.15 inches Hg (1021.1 mb)
Winds: missing
Visibility: 10 or more miles (16+ km)
Ceiling: unknown
Clouds: missing
Present Weather: automated observation with no human augmentation;
there may or may not be significant weather present at this time
KVVG 172130Z AUTO 10SM 12/05 A3015 RMK A01

Conditions at: KVVG observed 17 January 2018  21:10 UTC
Temperature: 12.0°C (54°F)
Dewpoint: 6.0°C (43°F) [RH = 67%]
Pressure (altimeter): 30.15 inches Hg (1021.1 mb)
Winds: missing
Visibility: 10 or more miles (16+ km)
Ceiling: unknown
Clouds: missing
Present Weather: automated observation with no human augmentation;
there may or may not be significant weather present at this time
KVVG 172110Z AUTO 10SM 12/06 A3015 RMK A01

Conditions at: KVVG observed 17 January 2018  20:50 UTC
Temperature: 12.0°C (54°F)
Dewpoint: 6.0°C (43°F) [RH = 67%]
Pressure (altimeter): 30.14 inches Hg (1020.7 mb)
Winds: from the N (10 degrees) at 10 MPH (9 knots; 4.7 m/s)
gusting to 18 MPH (16 knots; 8.3 m/s)
Visibility: 10 or more miles (16+ km)
Ceiling: unknown
Clouds: missing
Present Weather: automated observation with no human augmentation;
there may or may not be significant weather present at this time
KVVG 172050Z AUTO 01009G16KT 10SM 12/06 A3014 RMK A01

Conditions at: KVVG observed 17 January 2018  20:30 UTC
Temperature: 14.0°C (57°F)
Dewpoint: 7.0°C (45°F) [RH = 63%]
Pressure (altimeter): 30.13 inches Hg (1020.4 mb)
Winds: missing
Visibility: 10 or more miles (16+ km)
Ceiling: unknown
Clouds: missing
Present Weather: automated observation with no human augmentation;
there may or may not be significant weather present at this time
KVVG 172030Z AUTO 10SM 14/07 A3013 RMK A01

Conditions at: KVVG observed 17 January 2018  20:10 UTC
Temperature: 15.0°C (59°F)
Dewpoint: 8.0°C (46°F) [RH = 63%]
Pressure (altimeter): 30.12 inches Hg (1020.1 mb)
Winds: missing
Visibility: 10 or more miles (16+ km)
Ceiling: unknown
Clouds: missing
Present Weather: automated observation with no human augmentation;
there may or may not be significant weather present at this time
KVVG 172010Z AUTO 10SM 15/08 A3012 RMK A01

Conditions at: KVVG observed 17 January 2018  19:50 UTC
Temperature: 17.0°C (63°F)
Dewpoint: 9.0°C (48°F) [RH = 59%]
Pressure (altimeter): 30.12 inches Hg (1020.1 mb)
Winds: from the N (10 degrees) at 12 MPH (10 knots; 5.2 m/s)
gusting to 18 MPH (16 knots; 8.3 m/s)
Visibility: 10 or more miles (16+ km)
Ceiling: unknown
Clouds: missing
Present Weather: automated observation with no human augmentation;
there may or may not be significant weather present at this time
KVVG 171950Z AUTO 01010G16KT 10SM 17/09 A3012 RMK A01

Conditions at: KVVG observed 17 January 2018  19:30 UTC
Temperature: 17.0°C (63°F)
Dewpoint: 9.0°C (48°F) [RH = 59%]
Pressure (altimeter): 30.11 inches Hg (1019.7 mb)
Winds: missing
Visibility: 10 or more miles (16+ km)
Ceiling: unknown
Clouds: missing
Present Weather: automated observation with no human augmentation;
there may or may not be significant weather present at this time
KVVG 171930Z AUTO 10SM 17/09 A3011 RMK A01

Conditions at: KVVG observed 17 January 2018  19:10 UTC
Temperature: 18.0°C (64°F)
Dewpoint: 9.0°C (48°F) [RH = 56%]
Pressure (altimeter): 30.11 inches Hg (1019.7 mb)
Winds: missing
Visibility: 10 or more miles (16+ km)
Ceiling: unknown
Clouds: missing
Present Weather: automated observation with no human augmentation;
there may or may not be significant weather present at this time
KVVG 171910Z AUTO 10SM 18/09 A3011 RMK A01

Conditions at: KVVG observed 17 January 2018  18:50 UTC
Temperature: 19.0°C (66°F)
Dewpoint: 9.0°C (48°F) [RH = 52%]
Pressure (altimeter): 30.11 inches Hg (1019.7 mb)
Winds: missing
Visibility: 10 or more miles (16+ km)
Ceiling: unknown
Clouds: missing
Present Weather: automated observation with no human augmentation;
there may or may not be significant weather present at this time
KVVG 171850Z AUTO 10SM 19/09 A3011 RMK A01

Conditions at: KVVG observed 17 January 2018  18:30 UTC
Temperature: 19.0°C (66°F)
Dewpoint: 8.0°C (46°F) [RH = 49%]
Pressure (altimeter): 30.10 inches Hg (1019.4 mb)
Winds: from the N (10 degrees) at 10 MPH (9 knots; 4.7 m/s)
gusting to 18 MPH (16 knots; 8.3 m/s)
Visibility: 10 or more miles (16+ km)
Ceiling: unknown
Clouds: missing
Present Weather: automated observation with no human augmentation;
there may or may not be significant weather present at this time
KVVG 171830Z AUTO 01009G16KT 10SM 19/08 A3010 RMK A01

Conditions at: KVVG observed 17 January 2018  18:10 UTC
Temperature: 20.0°C (68°F)
Dewpoint: 10.0°C (50°F) [RH = 53%]
Pressure (altimeter): 30.11 inches Hg (1019.7 mb)
Winds: from the N (10 degrees) at 9 MPH (8 knots; 4.2 m/s)
gusting to 15 MPH (13 knots; 6.8 m/s)
Visibility: 10 or more miles (16+ km)
Ceiling: unknown
Clouds: missing
Present Weather: automated observation with no human augmentation;
there may or may not be significant weather present at this time
KVVG 171810Z AUTO 01008G13KT 10SM 20/10 A3011 RMK A01

Conditions at: KVVG observed 17 January 2018  17:50 UTC
Temperature: 20.0°C (68°F)
Dewpoint: 10.0°C (50°F) [RH = 53%]
Pressure (altimeter): 30.13 inches Hg (1020.4 mb)
Winds: missing
Visibility: 10 or more miles (16+ km)
Ceiling: unknown
Clouds: missing
Present Weather: automated observation with no human augmentation;
there may or may not be significant weather present at this time
KVVG 171750Z AUTO 10SM 20/10 A3013 RMK A01

Conditions at: KVVG observed 17 January 2018  17:30 UTC
Temperature: 20.0°C (68°F)
Dewpoint: 10.0°C (50°F) [RH = 53%]
Pressure (altimeter): 30.14 inches Hg (1020.7 mb)
Winds: from the N (10 degrees) at 8 MPH (7 knots; 3.6 m/s)
gusting to 15 MPH (13 knots; 6.8 m/s)
Visibility: 10 or more miles (16+ km)
Ceiling: unknown
Clouds: missing
Present Weather: automated observation with no human augmentation;
there may or may not be significant weather present at this time
KVVG 171730Z AUTO 01007G13KT 10SM 20/10 A3014 RMK A01

Conditions at: KVVG observed 17 January 2018  17:10 UTC
Temperature: 20.0°C (68°F)
Dewpoint: 10.0°C (50°F) [RH = 53%]
Pressure (altimeter): 30.15 inches Hg (1021.1 mb)
Winds: missing
Visibility: 10 or more miles (16+ km)
Ceiling: unknown
Clouds: missing
Present Weather: automated observation with no human augmentation;
there may or may not be significant weather present at this time
KVVG 171710Z AUTO 10SM 20/10 A3015 RMK A01

Conditions at: KVVG observed 17 January 2018  16:50 UTC
Temperature: 20.0°C (68°F)
Dewpoint: 10.0°C (50°F) [RH = 53%]
Pressure (altimeter): 30.15 inches Hg (1021.1 mb)
Winds: missing
Visibility: 10 or more miles (16+ km)
Ceiling: unknown
Clouds: missing
Present Weather: automated observation with no human augmentation;
there may or may not be significant weather present at this time
KVVG 171650Z AUTO 10SM 20/10 A3015 RMK A01

Conditions at: KVVG observed 17 January 2018  16:30 UTC
Temperature: 19.0°C (66°F)
Dewpoint: 11.0°C (52°F) [RH = 60%]
Pressure (altimeter): 30.16 inches Hg (1021.4 mb)
Winds: from the N (10 degrees) at 8 MPH (7 knots; 3.6 m/s)
gusting to 14 MPH (12 knots; 6.2 m/s)
Visibility: 10 or more miles (16+ km)
Ceiling: unknown
Clouds: missing
Present Weather: automated observation with no human augmentation;
there may or may not be significant weather present at this time
KVVG 171630Z AUTO 01007G12KT 10SM 19/11 A3016 RMK A01

Conditions at: KVVG observed 17 January 2018  16:10 UTC
Temperature: 19.0°C (66°F)
Dewpoint: 11.0°C (52°F) [RH = 60%]
Pressure (altimeter): 30.17 inches Hg (1021.8 mb)
Winds: missing
Visibility: 10 or more miles (16+ km)
Ceiling: unknown
Clouds: missing
Present Weather: automated observation with no human augmentation;
there may or may not be significant weather present at this time
KVVG 171610Z AUTO 10SM 19/11 A3017 RMK A01

Conditions at: KVVG observed 17 January 2018  15:50 UTC
Temperature: 18.0°C (64°F)
Dewpoint: 11.0°C (52°F) [RH = 64%]
Pressure (altimeter): 30.19 inches Hg (1022.4 mb)
Winds: missing
Visibility: 10 or more miles (16+ km)
Ceiling: unknown
Clouds: missing
Present Weather: automated observation with no human augmentation;
there may or may not be significant weather present at this time
KVVG 171550Z AUTO 10SM 18/11 A3019 RMK A01

Conditions at: KVVG observed 17 January 2018  15:30 UTC
Temperature: 17.0°C (63°F)
Dewpoint: 11.0°C (52°F) [RH = 68%]
Pressure (altimeter): 30.19 inches Hg (1022.4 mb)
Winds: missing
Visibility: 10 or more miles (16+ km)
Ceiling: unknown
Clouds: missing
Present Weather: automated observation with no human augmentation;
there may or may not be significant weather present at this time
KVVG 171530Z AUTO 10SM 17/11 A3019 RMK A01

Conditions at: KVVG observed 17 January 2018  15:10 UTC
Temperature: 16.0°C (61°F)
Dewpoint: 11.0°C (52°F) [RH = 72%]
Pressure (altimeter): 30.19 inches Hg (1022.4 mb)
Winds: calm
Visibility: 10 or more miles (16+ km)
Ceiling: unknown
Clouds: missing
Present Weather: automated observation with no human augmentation;
there may or may not be significant weather present at this time
KVVG 171510Z AUTO 00000KT 10SM 16/11 A3019 RMK A01

Conditions at: KVVG observed 17 January 2018  14:50 UTC
Temperature: 14.0°C (57°F)
Dewpoint: 11.0°C (52°F) [RH = 82%]
Pressure (altimeter): 30.19 inches Hg (1022.4 mb)
Winds: calm
Visibility: 10 or more miles (16+ km)
Ceiling: unknown
Clouds: missing
Present Weather: automated observation with no human augmentation;
there may or may not be significant weather present at this time
KVVG 171450Z AUTO 00000KT 10SM 14/11 A3019 RMK A01

Conditions at: KVVG observed 17 January 2018  14:30 UTC
Temperature: 13.0°C (55°F)
Dewpoint: 11.0°C (52°F) [RH = 88%]
Pressure (altimeter): 30.18 inches Hg (1022.1 mb)
Winds: calm
Visibility: 10 or more miles (16+ km)
Ceiling: unknown
Clouds: missing
Present Weather: automated observation with no human augmentation;
there may or may not be significant weather present at this time
KVVG 171430Z AUTO 00000KT 10SM 13/11 A3018 RMK A01

Conditions at: KVVG observed 17 January 2018  14:10 UTC
Temperature: 11.0°C (52°F)
Dewpoint: 10.0°C (50°F) [RH = 94%]
Pressure (altimeter): 30.17 inches Hg (1021.8 mb)
Winds: calm
Visibility: 10 or more miles (16+ km)
Ceiling: unknown
Clouds: missing
Present Weather: automated observation with no human augmentation;
there may or may not be significant weather present at this time
KVVG 171410Z AUTO 00000KT 10SM 11/10 A3017 RMK A01

Conditions at: KVVG observed 17 January 2018  13:50 UTC
Temperature: 10.0°C (50°F)
Dewpoint: 10.0°C (50°F) [RH = 100%]
Pressure (altimeter): 30.17 inches Hg (1021.8 mb)
Winds: calm
Visibility: 10 or more miles (16+ km)
Ceiling: unknown
Clouds: missing
Present Weather: automated observation with no human augmentation;
there may or may not be significant weather present at this time
KVVG 171350Z AUTO 00000KT 10SM 10/10 A3017 RMK A01

Conditions at: KVVG observed 17 January 2018  13:30 UTC
Temperature: 9.0°C (48°F)
Dewpoint: 9.0°C (48°F) [RH = 100%]
Pressure (altimeter): 30.18 inches Hg (1022.1 mb)
Winds: calm
Visibility: 10 or more miles (16+ km)
Ceiling: unknown
Clouds: missing
Present Weather: automated observation with no human augmentation;
there may or may not be significant weather present at this time
KVVG 171330Z AUTO 00000KT 10SM 09/09 A3018 RMK A01

Conditions at: KVVG observed 17 January 2018  13:10 UTC
Temperature: 7.0°C (45°F)
Dewpoint: 7.0°C (45°F) [RH = 100%]
Pressure (altimeter): 30.17 inches Hg (1021.8 mb)
Winds: calm
Visibility: 10 or more miles (16+ km)
Ceiling: unknown
Clouds: missing
Present Weather: automated observation with no human augmentation;
there may or may not be significant weather present at this time
KVVG 171310Z AUTO 00000KT 10SM 07/07 A3017 RMK A01

Conditions at: KVVG observed 17 January 2018  12:50 UTC
Temperature: 5.0°C (41°F)
Dewpoint: 5.0°C (41°F) [RH = 100%]
Pressure (altimeter): 30.17 inches Hg (1021.8 mb)
Winds: calm
Visibility: 10 or more miles (16+ km)
Ceiling: unknown
Clouds: missing
Present Weather: automated observation with no human augmentation;
there may or may not be significant weather present at this time
KVVG 171250Z AUTO 00000KT 10SM 05/05 A3017 RMK A01

Conditions at: KVVG observed 17 January 2018  12:30 UTC
Temperature: 5.0°C (41°F)
Dewpoint: 5.0°C (41°F) [RH = 100%]
Pressure (altimeter): 30.17 inches Hg (1021.8 mb)
Winds: calm
Visibility: 10 or more miles (16+ km)
Ceiling: unknown
Clouds: missing
Present Weather: automated observation with no human augmentation;
there may or may not be significant weather present at this time
KVVG 171230Z AUTO 00000KT 10SM 05/05 A3017 RMK A01

Conditions at: KVVG observed 17 January 2018  12:10 UTC
Temperature: 5.0°C (41°F)
Dewpoint: 5.0°C (41°F) [RH = 100%]
Pressure (altimeter): 30.16 inches Hg (1021.4 mb)
Winds: calm
Visibility: 10 or more miles (16+ km)
Ceiling: unknown
Clouds: missing
Present Weather: automated observation with no human augmentation;
there may or may not be significant weather present at this time
KVVG 171210Z AUTO 00000KT 10SM 05/05 A3016 RMK A01

Conditions at: KVVG observed 17 January 2018  11:50 UTC
Temperature: 5.0°C (41°F)
Dewpoint: 5.0°C (41°F) [RH = 100%]
Pressure (altimeter): 30.16 inches Hg (1021.4 mb)
Winds: calm
Visibility: 10 or more miles (16+ km)
Ceiling: unknown
Clouds: missing
Present Weather: automated observation with no human augmentation;
there may or may not be significant weather present at this time
KVVG 171150Z AUTO 00000KT 10SM 05/05 A3016 RMK A01

Conditions at: KVVG observed 17 January 2018  11:30 UTC
Temperature: 5.0°C (41°F)
Dewpoint: 5.0°C (41°F) [RH = 100%]
Pressure (altimeter): 30.16 inches Hg (1021.4 mb)
Winds: calm
Visibility: 0.75 miles (1.21 km)
Ceiling: unknown
Clouds: missing
Present Weather: BR  (mist)
KVVG 171130Z AUTO 00000KT 3/4SM BR 05/05 A3016 RMK A01

Conditions at: KVVG observed 17 January 2018  11:10 UTC
Temperature: 5.0°C (41°F)
Dewpoint: 5.0°C (41°F) [RH = 100%]
Pressure (altimeter): 30.16 inches Hg (1021.4 mb)
Winds: calm
Visibility: 1.50 miles (2.41 km)
Ceiling: unknown
Clouds: missing
Present Weather: BR  (mist)
KVVG 171110Z AUTO 00000KT 1 1/2SM BR 05/05 A3016 RMK A01

Conditions at: KVVG observed 17 January 2018  10:50 UTC
Temperature: 6.0°C (43°F)
Dewpoint: 6.0°C (43°F) [RH = 100%]
Pressure (altimeter): 30.15 inches Hg (1021.1 mb)
Winds: calm
Visibility: 3 miles (5 km)
Ceiling: unknown
Clouds: missing
Present Weather: BR  (mist)
KVVG 171050Z AUTO 00000KT 3SM BR 06/06 A3015 RMK A01

Conditions at: KVVG observed 17 January 2018  10:30 UTC
Temperature: 6.0°C (43°F)
Dewpoint: 6.0°C (43°F) [RH = 100%]
Pressure (altimeter): 30.15 inches Hg (1021.1 mb)
Winds: calm
Visibility: 9 miles (14 km)
Ceiling: unknown
Clouds: missing
Present Weather: automated observation with no human augmentation;
there may or may not be significant weather present at this time
KVVG 171030Z AUTO 00000KT 9SM 06/06 A3015 RMK A01

Conditions at: KVVG observed 17 January 2018  10:10 UTC
Temperature: 6.0°C (43°F)
Dewpoint: 6.0°C (43°F) [RH = 100%]
Pressure (altimeter): 30.15 inches Hg (1021.1 mb)
Winds: calm
Visibility: 9 miles (14 km)
Ceiling: unknown
Clouds: missing
Present Weather: automated observation with no human augmentation;
there may or may not be significant weather present at this time
KVVG 171010Z AUTO 00000KT 9SM 06/06 A3015 RMK A01

Conditions at: KVVG observed 17 January 2018  09:50 UTC
Temperature: 6.0°C (43°F)
Dewpoint: 6.0°C (43°F) [RH = 100%]
Pressure (altimeter): 30.15 inches Hg (1021.1 mb)
Winds: calm
Visibility: 2.00 miles (3.22 km)
Ceiling: unknown
Clouds: missing
Present Weather: BR  (mist)
KVVG 170950Z AUTO 00000KT 2SM BR 06/06 A3015 RMK A01 VIS 1V5

Conditions at: KVVG observed 17 January 2018  09:30 UTC
Temperature: 6.0°C (43°F)
Dewpoint: 6.0°C (43°F) [RH = 100%]
Pressure (altimeter): 30.15 inches Hg (1021.1 mb)
Winds: calm
Visibility: 0.25 miles (0.40 km)
Ceiling: unknown
Clouds: missing
Present Weather: FG  (fog)
KVVG 170930Z AUTO 00000KT 1/4SM FG 06/06 A3015 RMK A01

Conditions at: KVVG observed 17 January 2018  09:10 UTC
Temperature: 7.0°C (45°F)
Dewpoint: 7.0°C (45°F) [RH = 100%]
Pressure (altimeter): 30.16 inches Hg (1021.4 mb)
Winds: calm
Visibility: 2.00 miles (3.22 km)
Ceiling: unknown
Clouds: missing
Present Weather: BR  (mist)
KVVG 170910Z AUTO 00000KT 2SM BR 07/07 A3016 RMK A01 VIS 1V5

Conditions at: KVVG observed 17 January 2018  08:50 UTC
Temperature: 7.0°C (45°F)
Dewpoint: 7.0°C (45°F) [RH = 100%]
Pressure (altimeter): 30.16 inches Hg (1021.4 mb)
Winds: calm
Visibility: 10 or more miles (16+ km)
Ceiling: unknown
Clouds: missing
Present Weather: automated observation with no human augmentation;
there may or may not be significant weather present at this time
KVVG 170850Z AUTO 00000KT 10SM 07/07 A3016 RMK A01

Conditions at: KVVG observed 17 January 2018  08:30 UTC
Temperature: 7.0°C (45°F)
Dewpoint: 7.0°C (45°F) [RH = 100%]
Pressure (altimeter): 30.15 inches Hg (1021.1 mb)
Winds: calm
Visibility: 6 miles (10 km)
Ceiling: unknown
Clouds: missing
Present Weather: BR  (mist)
KVVG 170830Z AUTO 00000KT 6SM BR 07/07 A3015 RMK A01

Conditions at: KVVG observed 17 January 2018  08:10 UTC
Temperature: 7.0°C (45°F)
Dewpoint: 7.0°C (45°F) [RH = 100%]
Pressure (altimeter): 30.15 inches Hg (1021.1 mb)
Winds: calm
Visibility: 0.25 miles (0.40 km)
Ceiling: unknown
Clouds: missing
Present Weather: FG  (fog)
KVVG 170810Z AUTO 00000KT 1/4SM FG 07/07 A3015 RMK A01

Conditions at: KVVG observed 17 January 2018  07:50 UTC
Temperature: 8.0°C (46°F)
Dewpoint: 8.0°C (46°F) [RH = 100%]
Pressure (altimeter): 30.16 inches Hg (1021.4 mb)
Winds: calm
Visibility: 10 or more miles (16+ km)
Ceiling: unknown
Clouds: missing
Present Weather: automated observation with no human augmentation;
there may or may not be significant weather present at this time
KVVG 170750Z AUTO 00000KT 10SM 08/08 A3016 RMK A01

Conditions at: KVVG observed 17 January 2018  07:30 UTC
Temperature: 8.0°C (46°F)
Dewpoint: 8.0°C (46°F) [RH = 100%]
Pressure (altimeter): 30.16 inches Hg (1021.4 mb)
Winds: calm
Visibility: 10 or more miles (16+ km)
Ceiling: unknown
Clouds: missing
Present Weather: automated observation with no human augmentation;
there may or may not be significant weather present at this time
KVVG 170730Z AUTO 00000KT 10SM 08/08 A3016 RMK A01

Conditions at: KVVG observed 17 January 2018  07:10 UTC
Temperature: 9.0°C (48°F)
Dewpoint: 9.0°C (48°F) [RH = 100%]
Pressure (altimeter): 30.16 inches Hg (1021.4 mb)
Winds: calm
Visibility: 10 or more miles (16+ km)
Ceiling: unknown
Clouds: missing
Present Weather: automated observation with no human augmentation;
there may or may not be significant weather present at this time
KVVG 170710Z AUTO 00000KT 10SM 09/09 A3016 RMK A01

Conditions at: KVVG observed 17 January 2018  06:50 UTC
Temperature: 9.0°C (48°F)
Dewpoint: 9.0°C (48°F) [RH = 100%]
Pressure (altimeter): 30.16 inches Hg (1021.4 mb)
Winds: calm
Visibility: 10 or more miles (16+ km)
Ceiling: unknown
Clouds: missing
Present Weather: automated observation with no human augmentation;
there may or may not be significant weather present at this time
KVVG 170650Z AUTO 00000KT 10SM 09/09 A3016 RMK A01

Conditions at: KVVG observed 17 January 2018  06:30 UTC
Temperature: 9.0°C (48°F)
Dewpoint: 9.0°C (48°F) [RH = 100%]
Pressure (altimeter): 30.17 inches Hg (1021.8 mb)
Winds: calm
Visibility: 10 or more miles (16+ km)
Ceiling: unknown
Clouds: missing
Present Weather: automated observation with no human augmentation;
there may or may not be significant weather present at this time
KVVG 170630Z AUTO 00000KT 10SM 09/09 A3017 RMK A01

Conditions at: KVVG observed 17 January 2018  06:10 UTC
Temperature: 9.0°C (48°F)
Dewpoint: 9.0°C (48°F) [RH = 100%]
Pressure (altimeter): 30.17 inches Hg (1021.8 mb)
Winds: calm
Visibility: 10 or more miles (16+ km)
Ceiling: unknown
Clouds: missing
Present Weather: automated observation with no human augmentation;
there may or may not be significant weather present at this time
KVVG 170610Z AUTO 00000KT 10SM 09/09 A3017 RMK A01

Conditions at: KVVG observed 17 January 2018  05:50 UTC
Temperature: 9.0°C (48°F)
Dewpoint: 9.0°C (48°F) [RH = 100%]
Pressure (altimeter): 30.19 inches Hg (1022.4 mb)
Winds: calm
Visibility: 10 or more miles (16+ km)
Ceiling: unknown
Clouds: missing
Present Weather: automated observation with no human augmentation;
there may or may not be significant weather present at this time
KVVG 170550Z AUTO 00000KT 10SM 09/09 A3019 RMK A01

Conditions at: KVVG observed 17 January 2018  05:30 UTC
Temperature: 10.0°C (50°F)
Dewpoint: 10.0°C (50°F) [RH = 100%]
Pressure (altimeter): 30.19 inches Hg (1022.4 mb)
Winds: calm
Visibility: 10 or more miles (16+ km)
Ceiling: unknown
Clouds: missing
Present Weather: automated observation with no human augmentation;
there may or may not be significant weather present at this time
KVVG 170530Z AUTO 00000KT 10SM 10/10 A3019 RMK A01

Conditions at: KVVG observed 17 January 2018  05:10 UTC
Temperature: 10.0°C (50°F)
Dewpoint: 10.0°C (50°F) [RH = 100%]
Pressure (altimeter): 30.20 inches Hg (1022.8 mb)
Winds: calm
Visibility: 10 or more miles (16+ km)
Ceiling: unknown
Clouds: missing
Present Weather: automated observation with no human augmentation;
there may or may not be significant weather present at this time
KVVG 170510Z AUTO 00000KT 10SM 10/10 A3020 RMK A01

Conditions at: KVVG observed 17 January 2018  04:50 UTC
Temperature: 10.0°C (50°F)
Dewpoint: 10.0°C (50°F) [RH = 100%]
Pressure (altimeter): 30.21 inches Hg (1023.1 mb)
Winds: calm
Visibility: 10 or more miles (16+ km)
Ceiling: unknown
Clouds: missing
Present Weather: automated observation with no human augmentation;
there may or may not be significant weather present at this time
KVVG 170450Z AUTO 00000KT 10SM 10/10 A3021 RMK A01

Conditions at: KVVG observed 17 January 2018  04:30 UTC
Temperature: 10.0°C (50°F)
Dewpoint: 10.0°C (50°F) [RH = 100%]
Pressure (altimeter): 30.21 inches Hg (1023.1 mb)
Winds: calm
Visibility: 10 or more miles (16+ km)
Ceiling: unknown
Clouds: missing
Present Weather: automated observation with no human augmentation;
there may or may not be significant weather present at this time
KVVG 170430Z AUTO 00000KT 10SM 10/10 A3021 RMK A01

Conditions at: KVVG observed 17 January 2018  04:10 UTC
Temperature: 10.0°C (50°F)
Dewpoint: 10.0°C (50°F) [RH = 100%]
Pressure (altimeter): 30.21 inches Hg (1023.1 mb)
Winds: calm
Visibility: 10 or more miles (16+ km)
Ceiling: unknown
Clouds: missing
Present Weather: automated observation with no human augmentation;
there may or may not be significant weather present at this time
KVVG 170410Z AUTO 00000KT 10SM 10/10 A3021 RMK A01

Conditions at: KVVG observed 17 January 2018  03:50 UTC
Temperature: 10.0°C (50°F)
Dewpoint: 10.0°C (50°F) [RH = 100%]
Pressure (altimeter): 30.21 inches Hg (1023.1 mb)
Winds: calm
Visibility: 10 or more miles (16+ km)
Ceiling: unknown
Clouds: missing
Present Weather: automated observation with no human augmentation;
there may or may not be significant weather present at this time
KVVG 170350Z AUTO 00000KT 10SM 10/10 A3021 RMK A01

Conditions at: KVVG observed 17 January 2018  03:30 UTC
Temperature: 11.0°C (52°F)
Dewpoint: 10.0°C (50°F) [RH = 94%]
Pressure (altimeter): 30.21 inches Hg (1023.1 mb)
Winds: calm
Visibility: 10 or more miles (16+ km)
Ceiling: unknown
Clouds: missing
Present Weather: automated observation with no human augmentation;
there may or may not be significant weather present at this time
KVVG 170330Z AUTO 00000KT 10SM 11/10 A3021 RMK A01

Conditions at: KVVG observed 17 January 2018  03:10 UTC
Temperature: 11.0°C (52°F)
Dewpoint: 11.0°C (52°F) [RH = 100%]
Pressure (altimeter): 30.22 inches Hg (1023.5 mb)
Winds: calm
Visibility: 10 or more miles (16+ km)
Ceiling: unknown
Clouds: missing
Present Weather: automated observation with no human augmentation;
there may or may not be significant weather present at this time
KVVG 170310Z AUTO 00000KT 10SM 11/11 A3022 RMK A01

Conditions at: KVVG observed 17 January 2018  02:50 UTC
Temperature: 11.0°C (52°F)
Dewpoint: 11.0°C (52°F) [RH = 100%]
Pressure (altimeter): 30.21 inches Hg (1023.1 mb)
Winds: from the N (10 degrees) at 5 MPH (4 knots; 2.1 m/s)
Visibility: 10 or more miles (16+ km)
Ceiling: unknown
Clouds: missing
Present Weather: automated observation with no human augmentation;
there may or may not be significant weather present at this time
KVVG 170250Z AUTO 01004KT 10SM 11/11 A3021 RMK A01

Conditions at: KVVG observed 17 January 2018  02:30 UTC
Temperature: 12.0°C (54°F)
Dewpoint: 11.0°C (52°F) [RH = 94%]
Pressure (altimeter): 30.22 inches Hg (1023.5 mb)
Winds: calm
Visibility: 10 or more miles (16+ km)
Ceiling: unknown
Clouds: missing
Present Weather: automated observation with no human augmentation;
there may or may not be significant weather present at this time
KVVG 170230Z AUTO 00000KT 10SM 12/11 A3022 RMK A01

Conditions at: KVVG observed 17 January 2018  02:10 UTC
Temperature: 12.0°C (54°F)
Dewpoint: 11.0°C (52°F) [RH = 94%]
Pressure (altimeter): 30.22 inches Hg (1023.5 mb)
Winds: from the N (10 degrees) at 5 MPH (4 knots; 2.1 m/s)
Visibility: 10 or more miles (16+ km)
Ceiling: unknown
Clouds: missing
Present Weather: automated observation with no human augmentation;
there may or may not be significant weather present at this time
KVVG 170210Z AUTO 01004KT 10SM 12/11 A3022 RMK A01

Conditions at: KVVG observed 17 January 2018  01:50 UTC
Temperature: 13.0°C (55°F)
Dewpoint: 11.0°C (52°F) [RH = 88%]
Pressure (altimeter): 30.22 inches Hg (1023.5 mb)
Winds: missing
Visibility: 10 or more miles (16+ km)
Ceiling: unknown
Clouds: missing
Present Weather: automated observation with no human augmentation;
there may or may not be significant weather present at this time
KVVG 170150Z AUTO 10SM 13/11 A3022 RMK A01

Conditions at: KVVG observed 17 January 2018  01:30 UTC
Temperature: 13.0°C (55°F)
Dewpoint: 11.0°C (52°F) [RH = 88%]
Pressure (altimeter): 30.21 inches Hg (1023.1 mb)
Winds: calm
Visibility: 10 or more miles (16+ km)
Ceiling: unknown
Clouds: missing
Present Weather: automated observation with no human augmentation;
there may or may not be significant weather present at this time
KVVG 170130Z AUTO 00000KT 10SM 13/11 A3021 RMK A01

Conditions at: KVVG observed 17 January 2018  01:10 UTC
Temperature: 13.0°C (55°F)
Dewpoint: 11.0°C (52°F) [RH = 88%]
Pressure (altimeter): 30.21 inches Hg (1023.1 mb)
Winds: calm
Visibility: 10 or more miles (16+ km)
Ceiling: unknown
Clouds: missing
Present Weather: automated observation with no human augmentation;
there may or may not be significant weather present at this time
KVVG 170110Z AUTO 00000KT 10SM 13/11 A3021 RMK A01

Conditions at: KVVG observed 17 January 2018  00:50 UTC
Temperature: 14.0°C (57°F)
Dewpoint: 11.0°C (52°F) [RH = 82%]
Pressure (altimeter): 30.21 inches Hg (1023.1 mb)
Winds: calm
Visibility: 10 or more miles (16+ km)
Ceiling: unknown
Clouds: missing
Present Weather: automated observation with no human augmentation;
there may or may not be significant weather present at this time
KVVG 170050Z AUTO 00000KT 10SM 14/11 A3021 RMK A01

Conditions at: KVVG observed 17 January 2018  00:30 UTC
Temperature: 14.0°C (57°F)
Dewpoint: 10.0°C (50°F) [RH = 77%]
Pressure (altimeter): 30.20 inches Hg (1022.8 mb)
Winds: calm
Visibility: 10 or more miles (16+ km)
Ceiling: unknown
Clouds: missing
Present Weather: automated observation with no human augmentation;
there may or may not be significant weather present at this time
KVVG 170030Z AUTO 00000KT 10SM 14/10 A3020 RMK A01

Conditions at: KVVG observed 17 January 2018  00:10 UTC
Temperature: 15.0°C (59°F)
Dewpoint: 10.0°C (50°F) [RH = 72%]
Pressure (altimeter): 30.20 inches Hg (1022.8 mb)
Winds: calm
Visibility: 10 or more miles (16+ km)
Ceiling: unknown
Clouds: missing
Present Weather: automated observation with no human augmentation;
there may or may not be significant weather present at this time
KVVG 170010Z AUTO 00000KT 10SM 15/10 A3020 RMK A01

Conditions at: KVVG observed 16 January 2018  23:50 UTC
Temperature: 15.0°C (59°F)
Dewpoint: 10.0°C (50°F) [RH = 72%]
Pressure (altimeter): 30.20 inches Hg (1022.8 mb)
Winds: calm
Visibility: 10 or more miles (16+ km)
Ceiling: unknown
Clouds: missing
Present Weather: automated observation with no human augmentation;
there may or may not be significant weather present at this time
KVVG 162350Z AUTO 00000KT 10SM 15/10 A3020 RMK A01

Conditions at: KVVG observed 16 January 2018  23:30 UTC
Temperature: 16.0°C (61°F)
Dewpoint: 9.0°C (48°F) [RH = 63%]
Pressure (altimeter): 30.19 inches Hg (1022.4 mb)
Winds: calm
Visibility: 10 or more miles (16+ km)
Ceiling: unknown
Clouds: missing
Present Weather: automated observation with no human augmentation;
there may or may not be significant weather present at this time
KVVG 162330Z AUTO 00000KT 10SM 16/09 A3019 RMK A01

Conditions at: KVVG observed 16 January 2018  23:10 UTC
Temperature: 17.0°C (63°F)
Dewpoint: 9.0°C (48°F) [RH = 59%]
Pressure (altimeter): 30.19 inches Hg (1022.4 mb)
Winds: from the N (10 degrees) at 6 MPH (5 knots; 2.6 m/s)
Visibility: 10 or more miles (16+ km)
Ceiling: unknown
Clouds: missing
Present Weather: automated observation with no human augmentation;
there may or may not be significant weather present at this time
KVVG 162310Z AUTO 01005KT 10SM 17/09 A3019 RMK A01

Conditions at: KVVG observed 16 January 2018  22:50 UTC
Temperature: 17.0°C (63°F)
Dewpoint: 8.0°C (46°F) [RH = 55%]
Pressure (altimeter): 30.20 inches Hg (1022.8 mb)
Winds: missing
Visibility: 10 or more miles (16+ km)
Ceiling: unknown
Clouds: missing
Present Weather: automated observation with no human augmentation;
there may or may not be significant weather present at this time
KVVG 162250Z AUTO 10SM 17/08 A3020 RMK A01

Conditions at: KVVG observed 16 January 2018  22:30 UTC
Temperature: 18.0°C (64°F)
Dewpoint: 8.0°C (46°F) [RH = 52%]
Pressure (altimeter): 30.21 inches Hg (1023.1 mb)
Winds: from the N (10 degrees) at 5 MPH (4 knots; 2.1 m/s)
Visibility: 10 or more miles (16+ km)
Ceiling: unknown
Clouds: missing
Present Weather: automated observation with no human augmentation;
there may or may not be significant weather present at this time
KVVG 162230Z AUTO 01004KT 10SM 18/08 A3021 RMK A01

Conditions at: KVVG observed 16 January 2018  22:10 UTC
Temperature: 19.0°C (66°F)
Dewpoint: 7.0°C (45°F) [RH = 46%]
Pressure (altimeter): 30.20 inches Hg (1022.8 mb)
Winds: calm
Visibility: 10 or more miles (16+ km)
Ceiling: unknown
Clouds: missing
Present Weather: automated observation with no human augmentation;
there may or may not be significant weather present at this time
KVVG 162210Z AUTO 00000KT 10SM 19/07 A3020 RMK A01

Conditions at: KVVG observed 16 January 2018  21:50 UTC
Temperature: 20.0°C (68°F)
Dewpoint: 6.0°C (43°F) [RH = 40%]
Pressure (altimeter): 30.20 inches Hg (1022.8 mb)
Winds: calm
Visibility: 10 or more miles (16+ km)
Ceiling: unknown
Clouds: missing
Present Weather: automated observation with no human augmentation;
there may or may not be significant weather present at this time
KVVG 162150Z AUTO 00000KT 10SM 20/06 A3020 RMK A01

Conditions at: KVVG observed 16 January 2018  21:30 UTC
Temperature: 20.0°C (68°F)
Dewpoint: 6.0°C (43°F) [RH = 40%]
Pressure (altimeter): 30.20 inches Hg (1022.8 mb)
Winds: calm
Visibility: 10 or more miles (16+ km)
Ceiling: unknown
Clouds: missing
Present Weather: automated observation with no human augmentation;
there may or may not be significant weather present at this time
KVVG 162130Z AUTO 00000KT 10SM 20/06 A3020 RMK A01

Conditions at: KVVG observed 16 January 2018  21:10 UTC
Temperature: 20.0°C (68°F)
Dewpoint: 7.0°C (45°F) [RH = 43%]
Pressure (altimeter): 30.20 inches Hg (1022.8 mb)
Winds: from the NNE (20 degrees) at 3 MPH (3 knots; 1.6 m/s)
Visibility: 10 or more miles (16+ km)
Ceiling: unknown
Clouds: missing
Present Weather: automated observation with no human augmentation;
there may or may not be significant weather present at this time
KVVG 162110Z AUTO 02003KT 10SM 20/07 A3020 RMK A01

Conditions at: KVVG observed 16 January 2018  20:50 UTC
Temperature: 20.0°C (68°F)
Dewpoint: 7.0°C (45°F) [RH = 43%]
Pressure (altimeter): 30.20 inches Hg (1022.8 mb)
Winds: calm
Visibility: 10 or more miles (16+ km)
Ceiling: unknown
Clouds: missing
Present Weather: automated observation with no human augmentation;
there may or may not be significant weather present at this time
KVVG 162050Z AUTO 00000KT 10SM 20/07 A3020 RMK A01

Conditions at: KVVG observed 16 January 2018  20:30 UTC
Temperature: 21.0°C (70°F)
Dewpoint: 7.0°C (45°F) [RH = 40%]
Pressure (altimeter): 30.20 inches Hg (1022.8 mb)
Winds: calm
Visibility: 10 or more miles (16+ km)
Ceiling: unknown
Clouds: missing
Present Weather: automated observation with no human augmentation;
there may or may not be significant weather present at this time
KVVG 162030Z AUTO 00000KT 10SM 21/07 A3020 RMK A01

Conditions at: KVVG observed 16 January 2018  20:10 UTC
Temperature: 21.0°C (70°F)
Dewpoint: 7.0°C (45°F) [RH = 40%]
Pressure (altimeter): 30.20 inches Hg (1022.8 mb)
Winds: from the NNE (20 degrees) at 3 MPH (3 knots; 1.6 m/s)
Visibility: 10 or more miles (16+ km)
Ceiling: unknown
Clouds: missing
Present Weather: automated observation with no human augmentation;
there may or may not be significant weather present at this time
KVVG 162010Z AUTO 02003KT 10SM 21/07 A3020 RMK A01

Conditions at: KVVG observed 16 January 2018  19:50 UTC
Temperature: 21.0°C (70°F)
Dewpoint: 7.0°C (45°F) [RH = 40%]
Pressure (altimeter): 30.21 inches Hg (1023.1 mb)
Winds: from the N (10 degrees) at 5 MPH (4 knots; 2.1 m/s)
Visibility: 10 or more miles (16+ km)
Ceiling: unknown
Clouds: missing
Present Weather: automated observation with no human augmentation;
there may or may not be significant weather present at this time
KVVG 161950Z AUTO 01004KT 10SM 21/07 A3021 RMK A01

Conditions at: KVVG observed 16 January 2018  19:30 UTC
Temperature: 21.0°C (70°F)
Dewpoint: 7.0°C (45°F) [RH = 40%]
Pressure (altimeter): 30.21 inches Hg (1023.1 mb)
Winds: calm
Visibility: 10 or more miles (16+ km)
Ceiling: unknown
Clouds: missing
Present Weather: automated observation with no human augmentation;
there may or may not be significant weather present at this time
KVVG 161930Z AUTO 00000KT 10SM 21/07 A3021 RMK A01

Conditions at: KVVG observed 16 January 2018  19:10 UTC
Temperature: 19.0°C (66°F)
Dewpoint: 7.0°C (45°F) [RH = 46%]
Pressure (altimeter): 30.22 inches Hg (1023.5 mb)
Winds: calm
Visibility: 10 or more miles (16+ km)
Ceiling: unknown
Clouds: missing
Present Weather: automated observation with no human augmentation;
there may or may not be significant weather present at this time
KVVG 161910Z AUTO 00000G12KT 10SM 19/07 A3022 RMK A01

Conditions at: KVVG observed 16 January 2018  18:50 UTC
Temperature: 21.0°C (70°F)
Dewpoint: 9.0°C (48°F) [RH = 46%]
Pressure (altimeter): 30.22 inches Hg (1023.5 mb)
Winds: from the N (10 degrees) at 5 MPH (4 knots; 2.1 m/s)
Visibility: 10 or more miles (16+ km)
Ceiling: unknown
Clouds: missing
Present Weather: automated observation with no human augmentation;
there may or may not be significant weather present at this time
KVVG 161850Z AUTO 01004KT 10SM 21/09 A3022 RMK A01

Conditions at: KVVG observed 16 January 2018  18:30 UTC
Temperature: 21.0°C (70°F)
Dewpoint: 9.0°C (48°F) [RH = 46%]
Pressure (altimeter): 30.23 inches Hg (1023.8 mb)
Winds: calm
Visibility: 10 or more miles (16+ km)
Ceiling: unknown
Clouds: missing
Present Weather: automated observation with no human augmentation;
there may or may not be significant weather present at this time
KVVG 161830Z AUTO 00000KT 10SM 21/09 A3023 RMK A01

Conditions at: KVVG observed 16 January 2018  18:10 UTC
Temperature: 21.0°C (70°F)
Dewpoint: 10.0°C (50°F) [RH = 49%]
Pressure (altimeter): 30.24 inches Hg (1024.1 mb)
Winds: calm
Visibility: 10 or more miles (16+ km)
Ceiling: unknown
Clouds: missing
Present Weather: automated observation with no human augmentation;
there may or may not be significant weather present at this time
KVVG 161810Z AUTO 00000KT 10SM 21/10 A3024 RMK A01

Conditions at: KVVG observed 16 January 2018  17:50 UTC
Temperature: 20.0°C (68°F)
Dewpoint: 10.0°C (50°F) [RH = 53%]
Pressure (altimeter): 30.25 inches Hg (1024.5 mb)
Winds: missing
Visibility: 10 or more miles (16+ km)
Ceiling: unknown
Clouds: missing
Present Weather: automated observation with no human augmentation;
there may or may not be significant weather present at this time
KVVG 161750Z AUTO 10SM 20/10 A3025 RMK A01

Conditions at: KVVG observed 16 January 2018  17:30 UTC
Temperature: 20.0°C (68°F)
Dewpoint: 11.0°C (52°F) [RH = 56%]
Pressure (altimeter): 30.26 inches Hg (1024.8 mb)
Winds: missing
Visibility: 10 or more miles (16+ km)
Ceiling: unknown
Clouds: missing
Present Weather: automated observation with no human augmentation;
there may or may not be significant weather present at this time
KVVG 161730Z AUTO 10SM 20/11 A3026 RMK A01

Conditions at: KVVG observed 16 January 2018  17:10 UTC
Temperature: 19.0°C (66°F)
Dewpoint: 11.0°C (52°F) [RH = 60%]
Pressure (altimeter): 30.28 inches Hg (1025.5 mb)
Winds: from the N (10 degrees) at 5 MPH (4 knots; 2.1 m/s)
Visibility: 10 or more miles (16+ km)
Ceiling: unknown
Clouds: missing
Present Weather: automated observation with no human augmentation;
there may or may not be significant weather present at this time
KVVG 161710Z AUTO 01004KT 10SM 19/11 A3028 RMK A01

Conditions at: KVVG observed 16 January 2018  16:50 UTC
Temperature: 19.0°C (66°F)
Dewpoint: 11.0°C (52°F) [RH = 60%]
Pressure (altimeter): 30.29 inches Hg (1025.8 mb)
Winds: calm
Visibility: 10 or more miles (16+ km)
Ceiling: unknown
Clouds: missing
Present Weather: automated observation with no human augmentation;
there may or may not be significant weather present at this time
KVVG 161650Z AUTO 00000G11KT 10SM 19/11 A3029 RMK A01

Conditions at: KVVG observed 16 January 2018  16:30 UTC
Temperature: 19.0°C (66°F)
Dewpoint: 11.0°C (52°F) [RH = 60%]
Pressure (altimeter): 30.30 inches Hg (1026.2 mb)
Winds: from the NNE (20 degrees) at 6 MPH (5 knots; 2.6 m/s)
gusting to 12 MPH (10 knots; 5.2 m/s)
Visibility: 10 or more miles (16+ km)
Ceiling: unknown
Clouds: missing
Present Weather: automated observation with no human augmentation;
there may or may not be significant weather present at this time
KVVG 161630Z AUTO 02005G10KT 10SM 19/11 A3030 RMK A01

Conditions at: KVVG observed 16 January 2018  16:10 UTC
Temperature: 18.0°C (64°F)
Dewpoint: 11.0°C (52°F) [RH = 64%]
Pressure (altimeter): 30.30 inches Hg (1026.2 mb)
Winds: calm
Visibility: 10 or more miles (16+ km)
Ceiling: unknown
Clouds: missing
Present Weather: automated observation with no human augmentation;
there may or may not be significant weather present at this time
KVVG 161610Z AUTO 00000KT 10SM 18/11 A3030 RMK A01

Conditions at: KVVG observed 16 January 2018  15:50 UTC
Temperature: 17.0°C (63°F)
Dewpoint: 11.0°C (52°F) [RH = 68%]
Pressure (altimeter): 30.31 inches Hg (1026.5 mb)
Winds: from the NNE (20 degrees) at 6 MPH (5 knots; 2.6 m/s)
Visibility: 10 or more miles (16+ km)
Ceiling: unknown
Clouds: missing
Present Weather: automated observation with no human augmentation;
there may or may not be significant weather present at this time
KVVG 161550Z AUTO 02005KT 10SM 17/11 A3031 RMK A01

Conditions at: KVVG observed 16 January 2018  15:30 UTC
Temperature: 16.0°C (61°F)
Dewpoint: 10.0°C (50°F) [RH = 68%]
Pressure (altimeter): 30.31 inches Hg (1026.5 mb)
Winds: from the NNE (20 degrees) at 7 MPH (6 knots; 3.1 m/s)
Visibility: 10 or more miles (16+ km)
Ceiling: unknown
Clouds: missing
Present Weather: automated observation with no human augmentation;
there may or may not be significant weather present at this time
KVVG 161530Z AUTO 02006KT 10SM 16/10 A3031 RMK A01

Conditions at: KVVG observed 16 January 2018  15:10 UTC
Temperature: 14.0°C (57°F)
Dewpoint: 10.0°C (50°F) [RH = 77%]
Pressure (altimeter): 30.31 inches Hg (1026.5 mb)
Winds: from the NNE (20 degrees) at 8 MPH (7 knots; 3.6 m/s)
Visibility: 10 or more miles (16+ km)
Ceiling: unknown
Clouds: missing
Present Weather: automated observation with no human augmentation;
there may or may not be significant weather present at this time
KVVG 161510Z AUTO 02007KT 10SM 14/10 A3031 RMK A01

Conditions at: KVVG observed 16 January 2018  14:50 UTC
Temperature: 13.0°C (55°F)
Dewpoint: 9.0°C (48°F) [RH = 77%]
Pressure (altimeter): 30.31 inches Hg (1026.5 mb)
Winds: from the NNE (20 degrees) at 8 MPH (7 knots; 3.6 m/s)
Visibility: 10 or more miles (16+ km)
Ceiling: unknown
Clouds: missing
Present Weather: automated observation with no human augmentation;
there may or may not be significant weather present at this time
KVVG 161450Z AUTO 02007KT 10SM 13/09 A3031 RMK A01

Conditions at: KVVG observed 16 January 2018  14:30 UTC
Temperature: 12.0°C (54°F)
Dewpoint: 9.0°C (48°F) [RH = 82%]
Pressure (altimeter): 30.31 inches Hg (1026.5 mb)
Winds: from the NNE (20 degrees) at 9 MPH (8 knots; 4.2 m/s)
Visibility: 10 or more miles (16+ km)
Ceiling: unknown
Clouds: missing
Present Weather: automated observation with no human augmentation;
there may or may not be significant weather present at this time
KVVG 161430Z AUTO 02008KT 10SM 12/09 A3031 RMK A01

Conditions at: KVVG observed 16 January 2018  14:10 UTC
Temperature: 11.0°C (52°F)
Dewpoint: 8.0°C (46°F) [RH = 82%]
Pressure (altimeter): 30.30 inches Hg (1026.2 mb)
Winds: from the NNE (20 degrees) at 9 MPH (8 knots; 4.2 m/s)
Visibility: 10 or more miles (16+ km)
Ceiling: unknown
Clouds: missing
Present Weather: automated observation with no human augmentation;
there may or may not be significant weather present at this time
KVVG 161410Z AUTO 02008KT 10SM 11/08 A3030 RMK A01

Conditions at: KVVG observed 16 January 2018  13:50 UTC
Temperature: 10.0°C (50°F)
Dewpoint: 8.0°C (46°F) [RH = 87%]
Pressure (altimeter): 30.30 inches Hg (1026.2 mb)
Winds: from the NNE (20 degrees) at 7 MPH (6 knots; 3.1 m/s)
Visibility: 10 or more miles (16+ km)
Ceiling: unknown
Clouds: missing
Present Weather: automated observation with no human augmentation;
there may or may not be significant weather present at this time
KVVG 161350Z AUTO 02006KT 10SM 10/08 A3030 RMK A01

Conditions at: KVVG observed 16 January 2018  13:30 UTC
Temperature: 9.0°C (48°F)
Dewpoint: 8.0°C (46°F) [RH = 93%]
Pressure (altimeter): 30.29 inches Hg (1025.8 mb)
Winds: from the NNE (20 degrees) at 6 MPH (5 knots; 2.6 m/s)
Visibility: 10 or more miles (16+ km)
Ceiling: unknown
Clouds: missing
Present Weather: automated observation with no human augmentation;
there may or may not be significant weather present at this time
KVVG 161330Z AUTO 02005KT 10SM 09/08 A3029 RMK A01

Conditions at: KVVG observed 16 January 2018  13:10 UTC
Temperature: 8.0°C (46°F)
Dewpoint: 7.0°C (45°F) [RH = 93%]
Pressure (altimeter): 30.29 inches Hg (1025.8 mb)
Winds: calm
Visibility: 10 or more miles (16+ km)
Ceiling: unknown
Clouds: missing
Present Weather: automated observation with no human augmentation;
there may or may not be significant weather present at this time
KVVG 161310Z AUTO 00000KT 10SM 08/07 A3029 RMK A01

Conditions at: KVVG observed 16 January 2018  12:50 UTC
Temperature: 8.0°C (46°F)
Dewpoint: 7.0°C (45°F) [RH = 93%]
Pressure (altimeter): 30.29 inches Hg (1025.8 mb)
Winds: from the NNE (20 degrees) at 6 MPH (5 knots; 2.6 m/s)
Visibility: 10 or more miles (16+ km)
Ceiling: unknown
Clouds: missing
Present Weather: automated observation with no human augmentation;
there may or may not be significant weather present at this time
KVVG 161250Z AUTO 02005KT 10SM 08/07 A3029 RMK A01

Conditions at: KVVG observed 16 January 2018  12:30 UTC
Temperature: 7.0°C (45°F)
Dewpoint: 6.0°C (43°F) [RH = 93%]
Pressure (altimeter): 30.29 inches Hg (1025.8 mb)
Winds: from the NNE (20 degrees) at 5 MPH (4 knots; 2.1 m/s)
Visibility: 10 or more miles (16+ km)
Ceiling: unknown
Clouds: missing
Present Weather: automated observation with no human augmentation;
there may or may not be significant weather present at this time
KVVG 161230Z AUTO 02004KT 10SM 07/06 A3029 RMK A01

Conditions at: KVVG observed 16 January 2018  12:10 UTC
Temperature: 7.0°C (45°F)
Dewpoint: 6.0°C (43°F) [RH = 93%]
Pressure (altimeter): 30.29 inches Hg (1025.8 mb)
Winds: calm
Visibility: 10 or more miles (16+ km)
Ceiling: unknown
Clouds: missing
Present Weather: automated observation with no human augmentation;
there may or may not be significant weather present at this time
KVVG 161210Z AUTO 00000KT 10SM 07/06 A3029 RMK A01

Conditions at: KVVG observed 16 January 2018  11:50 UTC
Temperature: 7.0°C (45°F)
Dewpoint: 6.0°C (43°F) [RH = 93%]
Pressure (altimeter): 30.28 inches Hg (1025.5 mb)
Winds: calm
Visibility: 10 or more miles (16+ km)
Ceiling: unknown
Clouds: missing
Present Weather: automated observation with no human augmentation;
there may or may not be significant weather present at this time
KVVG 161150Z AUTO 00000KT 10SM 07/06 A3028 RMK A01

Conditions at: KVVG observed 16 January 2018  11:30 UTC
Temperature: 7.0°C (45°F)
Dewpoint: 6.0°C (43°F) [RH = 93%]
Pressure (altimeter): 30.28 inches Hg (1025.5 mb)
Winds: from the NNE (20 degrees) at 5 MPH (4 knots; 2.1 m/s)
Visibility: 10 or more miles (16+ km)
Ceiling: unknown
Clouds: missing
Present Weather: automated observation with no human augmentation;
there may or may not be significant weather present at this time
KVVG 161130Z AUTO 02004KT 10SM 07/06 A3028 RMK A01

Conditions at: KVVG observed 16 January 2018  11:10 UTC
Temperature: 7.0°C (45°F)
Dewpoint: 6.0°C (43°F) [RH = 93%]
Pressure (altimeter): 30.28 inches Hg (1025.5 mb)
Winds: from the NNE (20 degrees) at 6 MPH (5 knots; 2.6 m/s)
Visibility: 10 or more miles (16+ km)
Ceiling: unknown
Clouds: missing
Present Weather: automated observation with no human augmentation;
there may or may not be significant weather present at this time
KVVG 161110Z AUTO 02005KT 10SM 07/06 A3028 RMK A01

Conditions at: KVVG observed 16 January 2018  10:50 UTC
Temperature: 7.0°C (45°F)
Dewpoint: 6.0°C (43°F) [RH = 93%]
Pressure (altimeter): 30.27 inches Hg (1025.1 mb)
Winds: calm
Visibility: 10 or more miles (16+ km)
Ceiling: unknown
Clouds: missing
Present Weather: automated observation with no human augmentation;
there may or may not be significant weather present at this time
KVVG 161050Z AUTO 00000KT 10SM 07/06 A3027 RMK A01

Conditions at: KVVG observed 16 January 2018  10:30 UTC
Temperature: 7.0°C (45°F)
Dewpoint: 6.0°C (43°F) [RH = 93%]
Pressure (altimeter): 30.26 inches Hg (1024.8 mb)
Winds: calm
Visibility: 10 or more miles (16+ km)
Ceiling: unknown
Clouds: missing
Present Weather: automated observation with no human augmentation;
there may or may not be significant weather present at this time
KVVG 161030Z AUTO 00000KT 10SM 07/06 A3026 RMK A01

Conditions at: KVVG observed 16 January 2018  10:10 UTC
Temperature: 7.0°C (45°F)
Dewpoint: 6.0°C (43°F) [RH = 93%]
Pressure (altimeter): 30.27 inches Hg (1025.1 mb)
Winds: calm
Visibility: 10 or more miles (16+ km)
Ceiling: unknown
Clouds: missing
Present Weather: automated observation with no human augmentation;
there may or may not be significant weather present at this time
KVVG 161010Z AUTO 00000KT 10SM 07/06 A3027 RMK A01

Conditions at: KVVG observed 16 January 2018  09:50 UTC
Temperature: 6.0°C (43°F)
Dewpoint: 5.0°C (41°F) [RH = 93%]
Pressure (altimeter): 30.26 inches Hg (1024.8 mb)
Winds: calm
Visibility: 10 or more miles (16+ km)
Ceiling: unknown
Clouds: missing
Present Weather: automated observation with no human augmentation;
there may or may not be significant weather present at this time
KVVG 160950Z AUTO 00000KT 10SM 06/05 A3026 RMK A01

Conditions at: KVVG observed 16 January 2018  09:30 UTC
Temperature: 6.0°C (43°F)
Dewpoint: 5.0°C (41°F) [RH = 93%]
Pressure (altimeter): 30.26 inches Hg (1024.8 mb)
Winds: calm
Visibility: 10 or more miles (16+ km)
Ceiling: unknown
Clouds: missing
Present Weather: automated observation with no human augmentation;
there may or may not be significant weather present at this time
KVVG 160930Z AUTO 00000KT 10SM 06/05 A3026 RMK A01

Conditions at: KVVG observed 16 January 2018  09:10 UTC
Temperature: 6.0°C (43°F)
Dewpoint: 5.0°C (41°F) [RH = 93%]
Pressure (altimeter): 30.26 inches Hg (1024.8 mb)
Winds: calm
Visibility: 10 or more miles (16+ km)
Ceiling: unknown
Clouds: missing
Present Weather: automated observation with no human augmentation;
there may or may not be significant weather present at this time
KVVG 160910Z AUTO 00000KT 10SM 06/05 A3026 RMK A01

Conditions at: KVVG observed 16 January 2018  08:50 UTC
Temperature: 7.0°C (45°F)
Dewpoint: 5.0°C (41°F) [RH = 87%]
Pressure (altimeter): 30.26 inches Hg (1024.8 mb)
Winds: from the NNE (20 degrees) at 5 MPH (4 knots; 2.1 m/s)
Visibility: 10 or more miles (16+ km)
Ceiling: unknown
Clouds: missing
Present Weather: automated observation with no human augmentation;
there may or may not be significant weather present at this time
KVVG 160850Z AUTO 02004KT 10SM 07/05 A3026 RMK A01

Conditions at: KVVG observed 16 January 2018  08:30 UTC
Temperature: 6.0°C (43°F)
Dewpoint: 5.0°C (41°F) [RH = 93%]
Pressure (altimeter): 30.26 inches Hg (1024.8 mb)
Winds: from the NNE (20 degrees) at 5 MPH (4 knots; 2.1 m/s)
Visibility: 10 or more miles (16+ km)
Ceiling: unknown
Clouds: missing
Present Weather: automated observation with no human augmentation;
there may or may not be significant weather present at this time
KVVG 160830Z AUTO 02004KT 10SM 06/05 A3026 RMK A01

Conditions at: KVVG observed 16 January 2018  08:10 UTC
Temperature: 7.0°C (45°F)
Dewpoint: 5.0°C (41°F) [RH = 87%]
Pressure (altimeter): 30.26 inches Hg (1024.8 mb)
Winds: calm
Visibility: 10 or more miles (16+ km)
Ceiling: unknown
Clouds: missing
Present Weather: automated observation with no human augmentation;
there may or may not be significant weather present at this time
KVVG 160810Z AUTO 00000KT 10SM 07/05 A3026 RMK A01

Conditions at: KVVG observed 16 January 2018  07:50 UTC
Temperature: 7.0°C (45°F)
Dewpoint: 5.0°C (41°F) [RH = 87%]
Pressure (altimeter): 30.26 inches Hg (1024.8 mb)
Winds: calm
Visibility: 10 or more miles (16+ km)
Ceiling: unknown
Clouds: missing
Present Weather: automated observation with no human augmentation;
there may or may not be significant weather present at this time
KVVG 160750Z AUTO 00000KT 10SM 07/05 A3026 RMK A01

Conditions at: KVVG observed 16 January 2018  07:30 UTC
Temperature: 7.0°C (45°F)
Dewpoint: 5.0°C (41°F) [RH = 87%]
Pressure (altimeter): 30.26 inches Hg (1024.8 mb)
Winds: calm
Visibility: 10 or more miles (16+ km)
Ceiling: unknown
Clouds: missing
Present Weather: automated observation with no human augmentation;
there may or may not be significant weather present at this time
KVVG 160730Z AUTO 00000KT 10SM 07/05 A3026 RMK A01

Conditions at: KVVG observed 16 January 2018  07:10 UTC
Temperature: 7.0°C (45°F)
Dewpoint: 5.0°C (41°F) [RH = 87%]
Pressure (altimeter): 30.26 inches Hg (1024.8 mb)
Winds: calm
Visibility: 10 or more miles (16+ km)
Ceiling: unknown
Clouds: missing
Present Weather: automated observation with no human augmentation;
there may or may not be significant weather present at this time
KVVG 160710Z AUTO 00000KT 10SM 07/05 A3026 RMK A01

Conditions at: KVVG observed 16 January 2018  06:50 UTC
Temperature: 7.0°C (45°F)
Dewpoint: 5.0°C (41°F) [RH = 87%]
Pressure (altimeter): 30.26 inches Hg (1024.8 mb)
Winds: calm
Visibility: 10 or more miles (16+ km)
Ceiling: unknown
Clouds: missing
Present Weather: automated observation with no human augmentation;
there may or may not be significant weather present at this time
KVVG 160650Z AUTO 00000KT 10SM 07/05 A3026 RMK A01

Conditions at: KVVG observed 16 January 2018  06:30 UTC
Temperature: 7.0°C (45°F)
Dewpoint: 5.0°C (41°F) [RH = 87%]
Pressure (altimeter): 30.26 inches Hg (1024.8 mb)
Winds: from the NNE (20 degrees) at 8 MPH (7 knots; 3.6 m/s)
Visibility: 10 or more miles (16+ km)
Ceiling: unknown
Clouds: missing
Present Weather: automated observation with no human augmentation;
there may or may not be significant weather present at this time
KVVG 160630Z AUTO 02007KT 10SM 07/05 A3026 RMK A01

Conditions at: KVVG observed 16 January 2018  06:10 UTC
Temperature: 7.0°C (45°F)
Dewpoint: 4.0°C (39°F) [RH = 81%]
Pressure (altimeter): 30.27 inches Hg (1025.1 mb)
Winds: from the NNE (20 degrees) at 7 MPH (6 knots; 3.1 m/s)
Visibility: 10 or more miles (16+ km)
Ceiling: unknown
Clouds: missing
Present Weather: automated observation with no human augmentation;
there may or may not be significant weather present at this time
KVVG 160610Z AUTO 02006KT 10SM 07/04 A3027 RMK A01

Conditions at: KVVG observed 16 January 2018  05:50 UTC
Temperature: 7.0°C (45°F)
Dewpoint: 4.0°C (39°F) [RH = 81%]
Pressure (altimeter): 30.27 inches Hg (1025.1 mb)
Winds: from the NNE (20 degrees) at 6 MPH (5 knots; 2.6 m/s)
Visibility: 10 or more miles (16+ km)
Ceiling: unknown
Clouds: missing
Present Weather: automated observation with no human augmentation;
there may or may not be significant weather present at this time
KVVG 160550Z AUTO 02005KT 10SM 07/04 A3027 RMK A01

Conditions at: KVVG observed 16 January 2018  05:30 UTC
Temperature: 6.0°C (43°F)
Dewpoint: 4.0°C (39°F) [RH = 87%]
Pressure (altimeter): 30.29 inches Hg (1025.8 mb)
Winds: calm
Visibility: 10 or more miles (16+ km)
Ceiling: unknown
Clouds: missing
Present Weather: automated observation with no human augmentation;
there may or may not be significant weather present at this time
KVVG 160530Z AUTO 00000KT 10SM 06/04 A3029 RMK A01

Conditions at: KVVG observed 16 January 2018  05:10 UTC
Temperature: 6.0°C (43°F)
Dewpoint: 4.0°C (39°F) [RH = 87%]
Pressure (altimeter): 30.30 inches Hg (1026.2 mb)
Winds: from the NNE (20 degrees) at 5 MPH (4 knots; 2.1 m/s)
Visibility: 10 or more miles (16+ km)
Ceiling: unknown
Clouds: missing
Present Weather: automated observation with no human augmentation;
there may or may not be significant weather present at this time
KVVG 160510Z AUTO 02004KT 10SM 06/04 A3030 RMK A01

Conditions at: KVVG observed 16 January 2018  04:50 UTC
Temperature: 6.0°C (43°F)
Dewpoint: 4.0°C (39°F) [RH = 87%]
Pressure (altimeter): 30.29 inches Hg (1025.8 mb)
Winds: from the NNE (20 degrees) at 7 MPH (6 knots; 3.1 m/s)
Visibility: 10 or more miles (16+ km)
Ceiling: unknown
Clouds: missing
Present Weather: automated observation with no human augmentation;
there may or may not be significant weather present at this time
KVVG 160450Z AUTO 02006KT 10SM 06/04 A3029 RMK A01

Conditions at: KVVG observed 16 January 2018  04:30 UTC
Temperature: 6.0°C (43°F)
Dewpoint: 4.0°C (39°F) [RH = 87%]
Pressure (altimeter): 30.30 inches Hg (1026.2 mb)
Winds: from the NNE (20 degrees) at 5 MPH (4 knots; 2.1 m/s)
Visibility: 10 or more miles (16+ km)
Ceiling: unknown
Clouds: missing
Present Weather: automated observation with no human augmentation;
there may or may not be significant weather present at this time
KVVG 160430Z AUTO 02004KT 10SM 06/04 A3030 RMK A01

Conditions at: KVVG observed 16 January 2018  04:10 UTC
Temperature: 6.0°C (43°F)
Dewpoint: 4.0°C (39°F) [RH = 87%]
Pressure (altimeter): 30.30 inches Hg (1026.2 mb)
Winds: from the NNE (20 degrees) at 8 MPH (7 knots; 3.6 m/s)
Visibility: 10 or more miles (16+ km)
Ceiling: unknown
Clouds: missing
Present Weather: automated observation with no human augmentation;
there may or may not be significant weather present at this time
KVVG 160410Z AUTO 02007KT 10SM 06/04 A3030 RMK A01

Conditions at: KVVG observed 16 January 2018  03:50 UTC
Temperature: 7.0°C (45°F)
Dewpoint: 3.0°C (37°F) [RH = 76%]
Pressure (altimeter): 30.31 inches Hg (1026.5 mb)
Winds: from the NNE (20 degrees) at 8 MPH (7 knots; 3.6 m/s)
gusting to 14 MPH (12 knots; 6.2 m/s)
Visibility: 10 or more miles (16+ km)
Ceiling: unknown
Clouds: missing
Present Weather: automated observation with no human augmentation;
there may or may not be significant weather present at this time
KVVG 160350Z AUTO 02007G12KT 10SM 07/03 A3031 RMK A01

Conditions at: KVVG observed 16 January 2018  03:30 UTC
Temperature: 7.0°C (45°F)
Dewpoint: 3.0°C (37°F) [RH = 76%]
Pressure (altimeter): 30.31 inches Hg (1026.5 mb)
Winds: from the NNE (20 degrees) at 6 MPH (5 knots; 2.6 m/s)
gusting to 12 MPH (10 knots; 5.2 m/s)
Visibility: 10 or more miles (16+ km)
Ceiling: unknown
Clouds: missing
Present Weather: automated observation with no human augmentation;
there may or may not be significant weather present at this time
KVVG 160330Z AUTO 02005G10KT 10SM 07/03 A3031 RMK A01

Conditions at: KVVG observed 16 January 2018  03:10 UTC
Temperature: 6.0°C (43°F)
Dewpoint: 3.0°C (37°F) [RH = 81%]
Pressure (altimeter): 30.31 inches Hg (1026.5 mb)
Winds: from the NNE (20 degrees) at 7 MPH (6 knots; 3.1 m/s)
gusting to 14 MPH (12 knots; 6.2 m/s)
Visibility: 10 or more miles (16+ km)
Ceiling: unknown
Clouds: missing
Present Weather: automated observation with no human augmentation;
there may or may not be significant weather present at this time
KVVG 160310Z AUTO 02006G12KT 10SM 06/03 A3031 RMK A01

Conditions at: KVVG observed 16 January 2018  02:50 UTC
Temperature: 6.0°C (43°F)
Dewpoint: 3.0°C (37°F) [RH = 81%]
Pressure (altimeter): 30.31 inches Hg (1026.5 mb)
Winds: calm
Visibility: 10 or more miles (16+ km)
Ceiling: unknown
Clouds: missing
Present Weather: automated observation with no human augmentation;
there may or may not be significant weather present at this time
KVVG 160250Z AUTO 00000KT 10SM 06/03 A3031 RMK A01

Conditions at: KVVG observed 16 January 2018  02:30 UTC
Temperature: 7.0°C (45°F)
Dewpoint: 4.0°C (39°F) [RH = 81%]
Pressure (altimeter): 30.31 inches Hg (1026.5 mb)
Winds: from the NNE (20 degrees) at 5 MPH (4 knots; 2.1 m/s)
Visibility: 10 or more miles (16+ km)
Ceiling: unknown
Clouds: missing
Present Weather: automated observation with no human augmentation;
there may or may not be significant weather present at this time
KVVG 160230Z AUTO 02004KT 10SM 07/04 A3031 RMK A01

Conditions at: KVVG observed 16 January 2018  02:10 UTC
Temperature: 7.0°C (45°F)
Dewpoint: 3.0°C (37°F) [RH = 76%]
Pressure (altimeter): 30.30 inches Hg (1026.2 mb)
Winds: calm
Visibility: 10 or more miles (16+ km)
Ceiling: unknown
Clouds: missing
Present Weather: automated observation with no human augmentation;
there may or may not be significant weather present at this time
KVVG 160210Z AUTO 00000KT 10SM 07/03 A3030 RMK A01

Conditions at: KVVG observed 16 January 2018  01:50 UTC
Temperature: 7.0°C (45°F)
Dewpoint: 3.0°C (37°F) [RH = 76%]
Pressure (altimeter): 30.31 inches Hg (1026.5 mb)
Winds: from the NNE (30 degrees) at 8 MPH (7 knots; 3.6 m/s)
Visibility: 10 or more miles (16+ km)
Ceiling: unknown
Clouds: missing
Present Weather: automated observation with no human augmentation;
there may or may not be significant weather present at this time
KVVG 160150Z AUTO 03007KT 10SM 07/03 A3031 RMK A01

Conditions at: KVVG observed 16 January 2018  01:30 UTC
Temperature: 7.0°C (45°F)
Dewpoint: 3.0°C (37°F) [RH = 76%]
Pressure (altimeter): 30.31 inches Hg (1026.5 mb)
Winds: from the NNE (20 degrees) at 7 MPH (6 knots; 3.1 m/s)
Visibility: 10 or more miles (16+ km)
Ceiling: unknown
Clouds: missing
Present Weather: automated observation with no human augmentation;
there may or may not be significant weather present at this time
KVVG 160130Z AUTO 02006KT 10SM 07/03 A3031 RMK A01

Conditions at: KVVG observed 16 January 2018  01:10 UTC
Temperature: 8.0°C (46°F)
Dewpoint: 3.0°C (37°F) [RH = 71%]
Pressure (altimeter): 30.30 inches Hg (1026.2 mb)
Winds: from the NNE (20 degrees) at 8 MPH (7 knots; 3.6 m/s)
Visibility: 10 or more miles (16+ km)
Ceiling: unknown
Clouds: missing
Present Weather: automated observation with no human augmentation;
there may or may not be significant weather present at this time
KVVG 160110Z AUTO 02007KT 10SM 08/03 A3030 RMK A01

Conditions at: KVVG observed 16 January 2018  00:50 UTC
Temperature: 8.0°C (46°F)
Dewpoint: 3.0°C (37°F) [RH = 71%]
Pressure (altimeter): 30.30 inches Hg (1026.2 mb)
Winds: from the NNE (30 degrees) at 8 MPH (7 knots; 3.6 m/s)
Visibility: 10 or more miles (16+ km)
Ceiling: unknown
Clouds: missing
Present Weather: automated observation with no human augmentation;
there may or may not be significant weather present at this time
KVVG 160050Z AUTO 03007KT 10SM 08/03 A3030 RMK A01

Conditions at: KVVG observed 16 January 2018  00:30 UTC
Temperature: 9.0°C (48°F)
Dewpoint: 3.0°C (37°F) [RH = 66%]
Pressure (altimeter): 30.30 inches Hg (1026.2 mb)
Winds: from the N (10 degrees) at 7 MPH (6 knots; 3.1 m/s)
Visibility: 10 or more miles (16+ km)
Ceiling: unknown
Clouds: missing
Present Weather: automated observation with no human augmentation;
there may or may not be significant weather present at this time
KVVG 160030Z AUTO 01006KT 10SM 09/03 A3030 RMK A01

Conditions at: KVVG observed 16 January 2018  00:10 UTC
Temperature: 9.0°C (48°F)
Dewpoint: 3.0°C (37°F) [RH = 66%]
Pressure (altimeter): 30.29 inches Hg (1025.8 mb)
Winds: from the NNE (20 degrees) at 7 MPH (6 knots; 3.1 m/s)
Visibility: 10 or more miles (16+ km)
Ceiling: unknown
Clouds: missing
Present Weather: automated observation with no human augmentation;
there may or may not be significant weather present at this time
KVVG 160010Z AUTO 02006KT 10SM 09/03 A3029 RMK A01

Conditions at: KVVG observed 15 January 2018  23:50 UTC
Temperature: 10.0°C (50°F)
Dewpoint: 3.0°C (37°F) [RH = 62%]
Pressure (altimeter): 30.28 inches Hg (1025.5 mb)
Winds: from the NNE (20 degrees) at 8 MPH (7 knots; 3.6 m/s)
Visibility: 10 or more miles (16+ km)
Ceiling: unknown
Clouds: missing
Present Weather: automated observation with no human augmentation;
there may or may not be significant weather present at this time
KVVG 152350Z AUTO 02007KT 10SM 10/03 A3028 RMK A01

Conditions at: KVVG observed 15 January 2018  23:30 UTC
Temperature: 10.0°C (50°F)
Dewpoint: 4.0°C (39°F) [RH = 66%]
Pressure (altimeter): 30.27 inches Hg (1025.1 mb)
Winds: from the N (10 degrees) at 8 MPH (7 knots; 3.6 m/s)
Visibility: 10 or more miles (16+ km)
Ceiling: unknown
Clouds: missing
Present Weather: automated observation with no human augmentation;
there may or may not be significant weather present at this time
KVVG 152330Z AUTO 01007KT 10SM 10/04 A3027 RMK A01

Conditions at: KVVG observed 15 January 2018  23:10 UTC
Temperature: 11.0°C (52°F)
Dewpoint: 4.0°C (39°F) [RH = 62%]
Pressure (altimeter): 30.27 inches Hg (1025.1 mb)
Winds: from the N (10 degrees) at 7 MPH (6 knots; 3.1 m/s)
Visibility: 10 or more miles (16+ km)
Ceiling: unknown
Clouds: missing
Present Weather: automated observation with no human augmentation;
there may or may not be significant weather present at this time
KVVG 152310Z AUTO 01006KT 10SM 11/04 A3027 RMK A01

Conditions at: KVVG observed 15 January 2018  22:50 UTC
Temperature: 12.0°C (54°F)
Dewpoint: 4.0°C (39°F) [RH = 58%]
Pressure (altimeter): 30.26 inches Hg (1024.8 mb)
Winds: from the N (10 degrees) at 7 MPH (6 knots; 3.1 m/s)
Visibility: 10 or more miles (16+ km)
Ceiling: unknown
Clouds: missing
Present Weather: automated observation with no human augmentation;
there may or may not be significant weather present at this time
KVVG 152250Z AUTO 01006KT 10SM 12/04 A3026 RMK A01

Conditions at: KVVG observed 15 January 2018  22:30 UTC
Temperature: 13.0°C (55°F)
Dewpoint: 4.0°C (39°F) [RH = 54%]
Pressure (altimeter): 30.26 inches Hg (1024.8 mb)
Winds: from the N (10 degrees) at 9 MPH (8 knots; 4.2 m/s)
Visibility: 10 or more miles (16+ km)
Ceiling: unknown
Clouds: missing
Present Weather: automated observation with no human augmentation;
there may or may not be significant weather present at this time
KVVG 152230Z AUTO 01008KT 10SM 13/04 A3026 RMK A01